Time;durP1;ratioP1;P1;durP2;ratioP2;P2;SDS_P1;SDS_P2;PMS_P1;PMS_P2;Temp;Humidity;BMP_temperature;BMP_pressure;BME280_temperature;BME280_humidity;BME280_pressure;Samples;Min_cycle;Max_cycle;Signal;HPM_P1;HPM_P2
2021/07/15 00:00:49;;;;;;;5.22;1.10;;;;;;;;;;5010084;28;20038;-68
2021/07/15 00:03:22;;;;;;;1.27;0.85;;;;;;;;;;5008807;28;20014;-67
2021/07/15 00:05:48;;;;;;;2.97;0.95;;;;;;;;;;5011754;28;20053;-68
2021/07/15 00:08:16;;;;;;;1.02;0.80;;;;;;;;;;5009586;28;20046;-67
2021/07/15 00:10:46;;;;;;;1.38;0.77;;;;;;;;;;5008255;28;20045;-67
2021/07/15 00:13:13;;;;;;;0.88;0.85;;;;;;;;;;5009223;28;20046;-68
2021/07/15 00:15:40;;;;;;;1.90;0.95;;;;;;;;;;5008429;28;20109;-68
2021/07/15 00:18:06;;;;;;;1.00;1.00;;;;;;;;;;5010808;28;20536;-68
2021/07/15 00:20:33;;;;;;;2.08;0.90;;;;;;;;;;5009558;28;20042;-68
2021/07/15 00:22:59;;;;;;;1.27;0.80;;;;;;;;;;5009032;28;20031;-68
2021/07/15 00:25:24;;;;;;;1.85;0.90;;;;;;;;;;5009225;28;20049;-68
2021/07/15 00:27:49;;;;;;;1.15;0.90;;;;;;;;;;5009454;28;20072;-68
2021/07/15 00:30:15;;;;;;;0.60;0.60;;;;;;;;;;5009212;28;20547;-67
2021/07/15 00:32:40;;;;;;;2.38;0.80;;;;;;;;;;5010058;28;20052;-69
2021/07/15 00:35:06;;;;;;;1.55;0.80;;;;;;;;;;5009217;28;20045;-69
2021/07/15 00:37:32;;;;;;;1.25;0.70;;;;;;;;;;5007762;28;20038;-68
2021/07/15 00:39:57;;;;;;;0.65;0.65;;;;;;;;;;5007750;28;20091;-68
2021/07/15 00:42:22;;;;;;;0.80;0.80;;;;;;;;;;5008542;28;20025;-68
2021/07/15 00:44:47;;;;;;;2.53;0.65;;;;;;;;;;5010849;28;20029;-70
2021/07/15 00:47:12;;;;;;;1.63;0.60;;;;;;;;;;5008667;28;20069;-68
2021/07/15 00:49:38;;;;;;;0.40;0.40;;;;;;;;;;5009013;28;20029;-68
2021/07/15 00:52:03;;;;;;;0.50;0.50;;;;;;;;;;5007427;28;20045;-68
2021/07/15 00:54:28;;;;;;;1.48;0.50;;;;;;;;;;5008717;28;20034;-68
2021/07/15 00:56:54;;;;;;;0.55;0.40;;;;;;;;;;5010694;28;20471;-68
2021/07/15 00:59:21;;;;;;;0.82;0.50;;;;;;;;;;5009050;28;20030;-68
2021/07/15 01:01:47;;;;;;;0.30;0.30;;;;;;;;;;5008961;28;20037;-68
2021/07/15 01:04:12;;;;;;;1.45;0.47;;;;;;;;;;5006318;28;20034;-68
2021/07/15 01:06:37;;;;;;;1.02;0.47;;;;;;;;;;5008675;28;20446;-68
2021/07/15 01:09:03;;;;;;;1.13;0.50;;;;;;;;;;5010635;28;20026;-69
2021/07/15 01:11:35;;;;;;;1.20;0.65;;;;;;;;;;5008881;28;20022;-68
2021/07/15 01:14:02;;;;;;;0.47;0.40;;;;;;;;;;5008217;28;20029;-68
2021/07/15 01:16:44;;;;;;;0.30;0.30;;;;;;;;;;5007367;28;20048;-68
2021/07/15 01:19:28;;;;;;;0.65;0.50;;;;;;;;;;5008065;28;20107;-67
2021/07/15 01:22:06;;;;;;;1.70;0.40;;;;;;;;;;5008554;28;20064;-68
2021/07/15 01:24:50;;;;;;;0.40;0.40;;;;;;;;;;5008310;28;20057;-68
2021/07/15 01:27:15;;;;;;;0.55;0.40;;;;;;;;;;5008703;28;20101;-67
2021/07/15 01:29:47;;;;;;;1.30;0.50;;;;;;;;;;5010378;28;20595;-67
2021/07/15 01:32:13;;;;;;;0.88;0.50;;;;;;;;;;5007875;28;20044;-67
2021/07/15 01:34:39;;;;;;;0.30;0.30;;;;;;;;;;5008261;28;20042;-67
2021/07/15 01:37:04;;;;;;;0.70;0.63;;;;;;;;;;5008322;28;20042;-67
2021/07/15 01:39:32;;;;;;;1.20;0.60;;;;;;;;;;5008612;28;20605;-68
2021/07/15 01:42:01;;;;;;;0.75;0.50;;;;;;;;;;5010393;28;20030;-67
2021/07/15 01:44:28;;;;;;;0.30;0.30;;;;;;;;;;4990480;28;20030;-68
2021/07/15 01:46:54;;;;;;;0.40;0.40;;;;;;;;;;5007110;28;20042;-68
2021/07/15 01:49:19;;;;;;;0.50;0.50;;;;;;;;;;5007939;28;20034;-67
2021/07/15 01:51:44;;;;;;;2.05;0.70;;;;;;;;;;5008124;28;20034;-67
2021/07/15 01:54:10;;;;;;;0.40;0.40;;;;;;;;;;5008007;28;20439;-68
2021/07/15 01:56:36;;;;;;;1.33;0.60;;;;;;;;;;5010214;28;20546;-67
2021/07/15 01:59:01;;;;;;;0.50;0.47;;;;;;;;;;5006832;28;20030;-67
2021/07/15 02:01:27;;;;;;;2.45;0.45;;;;;;;;;;5008519;28;20060;-67
2021/07/15 02:03:55;;;;;;;0.50;0.50;;;;;;;;;;5007284;28;20038;-67
2021/07/15 02:06:21;;;;;;;0.70;0.70;;;;;;;;;;5006403;28;20333;-67
2021/07/15 02:08:47;;;;;;;1.33;0.70;;;;;;;;;;5008095;28;20133;-67
2021/07/15 02:11:14;;;;;;;3.08;0.60;;;;;;;;;;5007464;28;20038;-67
2021/07/15 02:13:40;;;;;;;0.52;0.50;;;;;;;;;;5007566;28;20030;-67
2021/07/15 02:16:06;;;;;;;0.98;0.47;;;;;;;;;;5008261;28;20487;-66
2021/07/15 02:18:31;;;;;;;0.68;0.68;;;;;;;;;;5007804;28;20041;-67
2021/07/15 02:20:57;;;;;;;1.35;1.00;;;;;;;;;;5010615;28;20018;-67
2021/07/15 02:23:23;;;;;;;0.65;0.65;;;;;;;;;;5011171;28;20548;-67
2021/07/15 02:25:50;;;;;;;2.00;0.60;;;;;;;;;;5011350;28;20049;-67
2021/07/15 02:28:15;;;;;;;0.60;0.60;;;;;;;;;;5011581;28;20030;-67
2021/07/15 02:30:45;;;;;;;1.70;0.88;;;;;;;;;;5011736;28;20080;-67
2021/07/15 02:33:13;;;;;;;0.75;0.75;;;;;;;;;;5010661;28;20076;-67
2021/07/15 02:35:43;;;;;;;1.67;0.80;;;;;;;;;;5013136;28;20025;-66
2021/07/15 02:38:10;;;;;;;0.82;0.80;;;;;;;;;;5011402;28;20100;-66
2021/07/15 02:40:35;;;;;;;0.80;0.70;;;;;;;;;;5011495;28;20121;-67
2021/07/15 02:43:00;;;;;;;0.70;0.70;;;;;;;;;;5010681;28;20116;-67
2021/07/15 02:45:26;;;;;;;2.58;0.90;;;;;;;;;;5011111;28;20018;-67
2021/07/15 02:47:54;;;;;;;0.80;0.80;;;;;;;;;;5012825;28;20037;-67
2021/07/15 02:50:21;;;;;;;1.60;0.82;;;;;;;;;;5011157;28;20034;-67
2021/07/15 02:52:47;;;;;;;0.80;0.80;;;;;;;;;;5010537;28;20034;-67
2021/07/15 02:55:13;;;;;;;2.90;0.90;;;;;;;;;;5011016;28;20042;-67
2021/07/15 02:57:44;;;;;;;0.85;0.60;;;;;;;;;;5011077;28;20083;-67
2021/07/15 03:00:11;;;;;;;0.88;0.60;;;;;;;;;;5009899;28;20026;-67
2021/07/15 03:02:44;;;;;;;0.98;0.70;;;;;;;;;;5012001;28;20380;-67
2021/07/15 03:05:14;;;;;;;0.88;0.88;;;;;;;;;;5017727;28;20038;-67
2021/07/15 03:07:45;;;;;;;1.60;0.70;;;;;;;;;;5010841;28;20034;-67
2021/07/15 03:10:12;;;;;;;1.40;0.80;;;;;;;;;;5010792;28;20038;-67
2021/07/15 03:12:39;;;;;;;1.23;0.80;;;;;;;;;;5009026;28;20434;-67
2021/07/15 03:15:04;;;;;;;0.70;0.70;;;;;;;;;;5011307;28;20025;-68
2021/07/15 03:17:38;;;;;;;0.50;0.50;;;;;;;;;;5010322;28;20030;-68
2021/07/15 03:20:07;;;;;;;0.95;0.60;;;;;;;;;;5010383;28;20176;-67
2021/07/15 03:22:35;;;;;;;0.82;0.70;;;;;;;;;;5010097;28;20041;-67
2021/07/15 03:25:02;;;;;;;0.80;0.80;;;;;;;;;;5010397;28;20089;-67
2021/07/15 03:27:29;;;;;;;0.77;0.77;;;;;;;;;;5010476;28;20025;-67
2021/07/15 03:29:56;;;;;;;5.28;0.82;;;;;;;;;;5012378;28;20033;-67
2021/07/15 03:32:22;;;;;;;1.15;0.73;;;;;;;;;;5008620;28;20599;-67
2021/07/15 03:34:47;;;;;;;0.55;0.55;;;;;;;;;;5009505;28;20132;-68
2021/07/15 03:37:14;;;;;;;0.68;0.68;;;;;;;;;;5009059;28;20538;-67
2021/07/15 03:39:40;;;;;;;0.55;0.55;;;;;;;;;;5010480;28;20054;-69
2021/07/15 03:42:05;;;;;;;0.65;0.65;;;;;;;;;;5012159;28;20038;-67
2021/07/15 03:44:30;;;;;;;0.57;0.57;;;;;;;;;;5009726;28;20038;-68
2021/07/15 03:46:56;;;;;;;1.13;0.63;;;;;;;;;;5008877;28;20034;-68
2021/07/15 03:49:22;;;;;;;1.08;0.60;;;;;;;;;;5009572;28;20030;-68
2021/07/15 03:51:48;;;;;;;0.57;0.50;;;;;;;;;;5008674;28;20029;-68
2021/07/15 03:54:14;;;;;;;0.60;0.60;;;;;;;;;;5009792;28;20041;-68
2021/07/15 03:56:41;;;;;;;1.00;0.70;;;;;;;;;;5012045;28;20021;-67
2021/07/15 03:59:07;;;;;;;1.23;0.75;;;;;;;;;;5008921;28;20041;-67
2021/07/15 04:01:32;;;;;;;1.38;0.80;;;;;;;;;;5009711;28;20030;-67
2021/07/15 04:04:00;;;;;;;0.57;0.50;;;;;;;;;;5008785;28;20030;-68
2021/07/15 04:06:26;;;;;;;0.50;0.50;;;;;;;;;;5009433;28;20030;-67
2021/07/15 04:08:51;;;;;;;0.70;0.70;;;;;;;;;;5011702;28;20527;-68
2021/07/15 04:11:18;;;;;;;0.45;0.45;;;;;;;;;;5009887;28;20084;-68
2021/07/15 04:13:44;;;;;;;1.85;0.70;;;;;;;;;;5009178;28;20152;-68
2021/07/15 04:16:09;;;;;;;1.27;0.47;;;;;;;;;;5009419;28;20117;-67
2021/07/15 04:18:37;;;;;;;0.80;0.50;;;;;;;;;;5009011;28;20176;-68
2021/07/15 04:21:02;;;;;;;0.70;0.70;;;;;;;;;;5011275;28;20296;-67
2021/07/15 04:23:30;;;;;;;0.60;0.52;;;;;;;;;;5008999;28;20173;-69
2021/07/15 04:25:55;;;;;;;0.60;0.45;;;;;;;;;;5009192;28;20033;-68
2021/07/15 04:28:21;;;;;;;0.73;0.45;;;;;;;;;;5009423;28;20049;-68
2021/07/15 04:30:47;;;;;;;2.33;0.95;;;;;;;;;;5007859;28;20033;-68
2021/07/15 04:33:13;;;;;;;0.50;0.43;;;;;;;;;;5007268;28;20050;-68
2021/07/15 04:35:38;;;;;;;0.85;0.43;;;;;;;;;;5010818;28;20045;-68
2021/07/15 04:38:04;;;;;;;0.47;0.47;;;;;;;;;;5007399;28;20508;-68
2021/07/15 04:40:30;;;;;;;1.67;0.70;;;;;;;;;;5008931;28;20036;-68
2021/07/15 04:42:59;;;;;;;0.90;0.50;;;;;;;;;;5008250;28;20034;-67
2021/07/15 04:45:25;;;;;;;2.00;0.80;;;;;;;;;;5008432;28;20120;-68
2021/07/15 04:47:52;;;;;;;3.50;0.80;;;;;;;;;;5010909;28;20014;-68
2021/07/15 04:50:18;;;;;;;1.75;0.90;;;;;;;;;;5008749;28;20030;-69
2021/07/15 04:52:44;;;;;;;0.32;0.32;;;;;;;;;;5008347;28;20368;-68
2021/07/15 04:55:10;;;;;;;0.43;0.40;;;;;;;;;;5008950;28;20030;-68
2021/07/15 04:57:36;;;;;;;0.68;0.50;;;;;;;;;;5008967;28;20384;-67
2021/07/15 05:00:04;;;;;;;0.80;0.40;;;;;;;;;;5010616;28;20574;-67
2021/07/15 05:02:29;;;;;;;2.58;0.40;;;;;;;;;;5007922;28;20568;-69
2021/07/15 05:04:54;;;;;;;1.92;0.40;;;;;;;;;;5008226;28;20050;-68
2021/07/15 05:07:19;;;;;;;1.17;0.50;;;;;;;;;;5008583;28;20034;-68
2021/07/15 05:09:45;;;;;;;0.30;0.30;;;;;;;;;;5008517;28;20087;-68
2021/07/15 05:12:10;;;;;;;2.67;0.70;;;;;;;;;;5010438;28;20306;-68
2021/07/15 05:14:41;;;;;;;1.55;0.50;;;;;;;;;;5007199;28;20261;-68
2021/07/15 05:17:07;;;;;;;0.80;0.65;;;;;;;;;;5008705;28;20038;-68
2021/07/15 05:19:32;;;;;;;0.73;0.60;;;;;;;;;;5006718;28;20117;-69
2021/07/15 05:21:58;;;;;;;3.42;0.73;;;;;;;;;;5008113;28;20554;-68
2021/07/15 05:24:23;;;;;;;0.70;0.60;;;;;;;;;;5008220;28;20014;-69
2021/07/15 05:26:48;;;;;;;1.25;0.70;;;;;;;;;;5009083;28;20030;-67
2021/07/15 05:29:14;;;;;;;2.25;0.80;;;;;;;;;;5007083;28;20030;-68
2021/07/15 05:31:39;;;;;;;3.03;1.00;;;;;;;;;;5006828;28;20030;-67
2021/07/15 05:34:04;;;;;;;2.45;1.08;;;;;;;;;;5007643;28;20041;-68
2021/07/15 05:36:30;;;;;;;1.60;0.90;;;;;;;;;;5008388;28;20036;-70
2021/07/15 05:38:55;;;;;;;1.00;0.73;;;;;;;;;;5010173;28;20026;-68
2021/07/15 05:41:20;;;;;;;2.42;1.00;;;;;;;;;;5007043;28;20049;-68
2021/07/15 05:43:45;;;;;;;2.75;1.10;;;;;;;;;;5007989;28;20443;-68
2021/07/15 05:46:10;;;;;;;2.73;0.90;;;;;;;;;;5008511;28;20038;-68
2021/07/15 05:48:36;;;;;;;2.03;0.80;;;;;;;;;;5007844;28;20773;-69
2021/07/15 05:51:01;;;;;;;1.42;0.98;;;;;;;;;;5009935;28;20268;-68
2021/07/15 05:53:26;;;;;;;1.17;0.70;;;;;;;;;;5007940;28;20026;-68
2021/07/15 05:55:51;;;;;;;2.10;0.88;;;;;;;;;;5008882;28;20368;-69
2021/07/15 05:58:16;;;;;;;2.23;0.80;;;;;;;;;;5011865;28;20030;-69
2021/07/15 06:00:42;;;;;;;3.85;1.08;;;;;;;;;;5010569;28;20265;-68
2021/07/15 06:03:07;;;;;;;2.50;0.80;;;;;;;;;;5013582;28;20026;-69
2021/07/15 06:05:33;;;;;;;1.48;0.73;;;;;;;;;;5011789;28;20293;-69
2021/07/15 06:07:59;;;;;;;4.55;0.75;;;;;;;;;;5012033;28;20042;-68
2021/07/15 06:10:25;;;;;;;1.55;1.10;;;;;;;;;;5011991;28;20038;-68
2021/07/15 06:12:50;;;;;;;2.83;0.77;;;;;;;;;;5011305;28;20165;-68
2021/07/15 06:15:15;;;;;;;2.10;0.67;;;;;;;;;;5011837;28;20026;-69
2021/07/15 06:17:41;;;;;;;1.10;0.60;;;;;;;;;;5013764;28;20261;-69
2021/07/15 06:20:07;;;;;;;1.25;0.70;;;;;;;;;;5011234;28;20372;-69
2021/07/15 06:22:33;;;;;;;0.88;0.75;;;;;;;;;;5011164;28;20365;-68
2021/07/15 06:24:58;;;;;;;3.22;0.90;;;;;;;;;;5011049;28;20038;-68
2021/07/15 06:27:23;;;;;;;1.80;0.50;;;;;;;;;;5011294;28;20448;-69
2021/07/15 06:29:48;;;;;;;2.30;0.63;;;;;;;;;;5013615;28;20765;-69
2021/07/15 06:32:13;;;;;;;1.27;0.80;;;;;;;;;;5010977;28;20774;-68
2021/07/15 06:34:39;;;;;;;0.98;0.70;;;;;;;;;;5011062;28;20284;-69
2021/07/15 06:37:07;;;;;;;2.08;0.80;;;;;;;;;;5034105;23;20496;-73
2021/07/15 06:39:32;;;;;;;1.95;0.68;;;;;;;;;;5029441;28;20129;-73
2021/07/15 06:41:57;;;;;;;4.05;0.70;;;;;;;;;;5033230;28;20096;-74
2021/07/15 06:44:24;;;;;;;1.23;0.60;;;;;;;;;;5030990;28;20037;-73
2021/07/15 06:46:49;;;;;;;1.17;0.68;;;;;;;;;;5030609;28;20064;-73
2021/07/15 06:49:14;;;;;;;2.03;0.60;;;;;;;;;;5023381;28;20030;-74
2021/07/15 06:51:40;;;;;;;0.73;0.47;;;;;;;;;;5010121;28;20038;-73
2021/07/15 06:54:05;;;;;;;3.00;1.00;;;;;;;;;;5012687;28;20018;-73
2021/07/15 06:56:30;;;;;;;0.95;0.88;;;;;;;;;;5010565;28;20041;-74
2021/07/15 06:58:56;;;;;;;3.45;0.60;;;;;;;;;;5011448;28;20553;-73
2021/07/15 07:01:21;;;;;;;0.80;0.70;;;;;;;;;;5008555;28;20040;-73
2021/07/15 07:03:46;;;;;;;0.98;0.70;;;;;;;;;;5010788;28;20046;-73
2021/07/15 07:06:11;;;;;;;0.70;0.40;;;;;;;;;;5023951;28;20034;-73
2021/07/15 07:08:37;;;;;;;1.70;0.50;;;;;;;;;;5031156;28;20272;-74
2021/07/15 07:11:02;;;;;;;0.52;0.47;;;;;;;;;;5029766;28;20281;-72
2021/07/15 07:13:27;;;;;;;0.50;0.40;;;;;;;;;;5030304;28;20041;-73
2021/07/15 07:15:52;;;;;;;0.55;0.40;;;;;;;;;;5029669;28;20535;-74
2021/07/15 07:18:19;;;;;;;0.63;0.60;;;;;;;;;;5030795;28;20010;-72
2021/07/15 07:20:44;;;;;;;0.93;0.43;;;;;;;;;;5013917;28;20295;-74
2021/07/15 07:23:13;;;;;;;0.45;0.40;;;;;;;;;;5010566;28;20065;-73
2021/07/15 07:25:39;;;;;;;1.30;0.40;;;;;;;;;;5010417;28;20133;-73
2021/07/15 07:28:04;;;;;;;2.28;0.57;;;;;;;;;;5011003;28;20030;-73
2021/07/15 07:30:29;;;;;;;1.90;0.60;;;;;;;;;;5010728;28;20459;-74
2021/07/15 07:32:54;;;;;;;1.20;0.60;;;;;;;;;;5012069;28;20265;-74
2021/07/15 07:35:19;;;;;;;2.13;0.40;;;;;;;;;;5017623;28;20272;-75
2021/07/15 07:37:45;;;;;;;0.57;0.57;;;;;;;;;;5010435;28;20377;-73
2021/07/15 07:40:11;;;;;;;2.47;0.80;;;;;;;;;;5008995;28;20026;-73
2021/07/15 07:42:36;;;;;;;1.77;0.30;;;;;;;;;;5009822;28;20040;-73
2021/07/15 07:45:03;;;;;;;1.52;0.57;;;;;;;;;;5012165;28;20399;-74
2021/07/15 07:47:28;;;;;;;2.05;0.65;;;;;;;;;;5008644;28;20037;-73
2021/07/15 07:49:53;;;;;;;0.60;0.60;;;;;;;;;;5009522;28;20357;-74
2021/07/15 07:52:19;;;;;;;5.60;0.60;;;;;;;;;;5009638;28;20030;-72
2021/07/15 07:54:44;;;;;;;1.20;0.60;;;;;;;;;;5009791;28;20026;-74
2021/07/15 07:57:10;;;;;;;0.80;0.60;;;;;;;;;;5012175;28;20100;-73
2021/07/15 07:59:35;;;;;;;1.17;0.55;;;;;;;;;;5008771;28;20028;-73
2021/07/15 08:02:01;;;;;;;0.85;0.52;;;;;;;;;;5009245;28;20034;-73
2021/07/15 08:04:26;;;;;;;2.67;0.63;;;;;;;;;;5007621;28;20116;-73
2021/07/15 08:06:51;;;;;;;0.40;0.40;;;;;;;;;;5008188;28;20416;-73
2021/07/15 08:09:21;;;;;;;1.70;0.60;;;;;;;;;;5008721;28;20017;-73
2021/07/15 08:11:49;;;;;;;1.88;0.57;;;;;;;;;;5012147;28;20249;-74
2021/07/15 08:14:14;;;;;;;0.50;0.50;;;;;;;;;;5009344;28;20037;-73
2021/07/15 08:16:39;;;;;;;1.60;0.77;;;;;;;;;;5008528;28;20033;-74
2021/07/15 08:19:05;;;;;;;1.15;0.70;;;;;;;;;;5007480;28;20269;-73
2021/07/15 08:21:30;;;;;;;0.60;0.60;;;;;;;;;;5015857;28;20017;-74
2021/07/15 08:23:56;;;;;;;1.20;0.63;;;;;;;;;;5012777;28;20113;-74
2021/07/15 08:26:21;;;;;;;1.58;0.70;;;;;;;;;;5009092;28;20125;-73
2021/07/15 08:28:46;;;;;;;1.45;0.70;;;;;;;;;;5009178;28;20041;-75
2021/07/15 08:31:11;;;;;;;1.45;0.73;;;;;;;;;;5009284;28;20034;-73
2021/07/15 08:33:37;;;;;;;0.73;0.70;;;;;;;;;;5008033;28;20125;-73
2021/07/15 08:36:02;;;;;;;0.50;0.50;;;;;;;;;;5010845;28;20367;-73
2021/07/15 08:38:28;;;;;;;0.40;0.40;;;;;;;;;;5009427;28;20092;-72
2021/07/15 08:40:53;;;;;;;1.50;0.43;;;;;;;;;;5009053;28;20037;-73
2021/07/15 08:43:18;;;;;;;1.48;0.50;;;;;;;;;;5008749;28;20762;-73
2021/07/15 08:45:44;;;;;;;0.40;0.40;;;;;;;;;;5009215;28;20121;-73
2021/07/15 08:48:10;;;;;;;0.82;0.40;;;;;;;;;;5011188;28;20483;-73
2021/07/15 08:50:35;;;;;;;1.23;0.70;;;;;;;;;;5008959;28;20352;-74
2021/07/15 08:53:01;;;;;;;0.55;0.55;;;;;;;;;;5007378;28;20168;-73
2021/07/15 08:58:11;;;;;;;0.40;0.40;;;;;;;;;;5009464;28;20036;-74
2021/07/15 09:00:36;;;;;;;0.98;0.52;;;;;;;;;;5009241;28;20037;-73
2021/07/15 09:03:02;;;;;;;0.68;0.60;;;;;;;;;;5009352;28;20021;-72
2021/07/15 09:05:27;;;;;;;0.98;0.50;;;;;;;;;;5008325;28;20048;-74
2021/07/15 09:07:52;;;;;;;1.55;0.52;;;;;;;;;;5007786;28;20042;-73
2021/07/15 09:10:17;;;;;;;2.78;0.50;;;;;;;;;;5009027;28;20099;-73
2021/07/15 09:12:43;;;;;;;0.60;0.55;;;;;;;;;;5008417;28;20027;-74
2021/07/15 09:15:11;;;;;;;0.60;0.50;;;;;;;;;;5009893;28;20037;-73
2021/07/15 09:17:36;;;;;;;0.45;0.40;;;;;;;;;;5007539;28;20029;-73
2021/07/15 09:20:05;;;;;;;0.30;0.30;;;;;;;;;;5007010;28;20584;-74
2021/07/15 09:22:30;;;;;;;0.73;0.40;;;;;;;;;;5007917;28;20033;-74
2021/07/15 09:24:59;;;;;;;0.30;0.30;;;;;;;;;;5008640;28;20022;-73
2021/07/15 09:27:25;;;;;;;0.30;0.30;;;;;;;;;;5008451;28;20029;-72
2021/07/15 09:30:09;;;;;;;0.82;0.22;;;;;;;;;;5011501;28;20720;-73
2021/07/15 09:32:50;;;;;;;0.30;0.30;;;;;;;;;;5012156;28;20038;-73
2021/07/15 09:35:23;;;;;;;0.75;0.50;;;;;;;;;;5010444;28;20038;-73
2021/07/15 09:37:49;;;;;;;0.57;0.40;;;;;;;;;;5012203;28;20030;-73
2021/07/15 09:40:14;;;;;;;0.60;0.60;;;;;;;;;;5012648;28;20164;-73
2021/07/15 09:42:39;;;;;;;0.40;0.40;;;;;;;;;;5011132;28;20026;-73
2021/07/15 09:45:09;;;;;;;0.35;0.30;;;;;;;;;;5013314;28;20384;-73
2021/07/15 09:47:39;;;;;;;0.40;0.40;;;;;;;;;;5012621;28;20120;-73
2021/07/15 09:50:17;;;;;;;0.88;0.50;;;;;;;;;;5010375;28;20117;-73
2021/07/15 09:52:42;;;;;;;0.55;0.30;;;;;;;;;;5010247;28;20431;-73
2021/07/15 09:55:20;;;;;;;0.32;0.30;;;;;;;;;;5010811;28;20041;-73
2021/07/15 09:57:46;;;;;;;0.45;0.40;;;;;;;;;;5010651;28;20037;-74
2021/07/15 10:00:12;;;;;;;0.80;0.68;;;;;;;;;;5014428;28;20014;-74
2021/07/15 10:02:37;;;;;;;0.45;0.40;;;;;;;;;;5010592;28;20037;-73
2021/07/15 10:05:03;;;;;;;0.55;0.35;;;;;;;;;;5010230;28;20034;-73
2021/07/15 10:07:28;;;;;;;0.82;0.50;;;;;;;;;;5017802;28;20033;-75
2021/07/15 10:10:13;;;;;;;0.50;0.50;;;;;;;;;;5031713;28;20030;-74
2021/07/15 10:12:38;;;;;;;0.40;0.40;;;;;;;;;;5029568;28;20276;-74
2021/07/15 10:15:07;;;;;;;0.30;0.30;;;;;;;;;;5033850;28;20430;-74
2021/07/15 10:17:39;;;;;;;1.00;0.40;;;;;;;;;;5031473;28;20554;-74
2021/07/15 10:20:04;;;;;;;;;;;;;;;;;;5023808;28;20041;-75
2021/07/15 10:22:30;;;;;;;0.88;0.50;;;;;;;;;;5025065;28;19964;-74
2021/07/15 10:24:55;;;;;;;0.45;0.40;;;;;;;;;;5009837;28;20030;-74
2021/07/15 10:27:20;;;;;;;0.53;0.40;;;;;;;;;;5011515;28;20638;-74
2021/07/15 10:29:46;;;;;;;0.38;0.38;;;;;;;;;;5013865;28;20719;-75
2021/07/15 10:32:12;;;;;;;0.35;0.30;;;;;;;;;;5010258;28;20124;-76
2021/07/15 10:34:37;;;;;;;1.00;0.40;;;;;;;;;;5010361;28;20844;-74
2021/07/15 10:37:02;;;;;;;0.60;0.20;;;;;;;;;;5010495;28;20549;-75
2021/07/15 10:39:29;;;;;;;0.47;0.32;;;;;;;;;;5011729;28;20025;-75
2021/07/15 10:41:57;;;;;;;0.20;0.20;;;;;;;;;;5011455;28;20038;-74
2021/07/15 10:44:22;;;;;;;0.52;0.40;;;;;;;;;;5010131;28;20125;-74
2021/07/15 10:46:48;;;;;;;1.95;0.20;;;;;;;;;;5009819;28;20121;-74
2021/07/15 10:49:13;;;;;;;0.75;0.20;;;;;;;;;;5009980;28;20045;-74
2021/07/15 10:51:42;;;;;;;0.10;0.10;;;;;;;;;;5018256;28;20040;-74
2021/07/15 10:54:07;;;;;;;1.00;0.30;;;;;;;;;;5011824;28;20049;-75
2021/07/15 10:56:32;;;;;;;0.43;0.20;;;;;;;;;;5009664;28;20092;-74
2021/07/15 10:58:58;;;;;;;0.30;0.20;;;;;;;;;;5009782;28;20277;-74
2021/07/15 11:01:41;;;;;;;0.40;0.30;;;;;;;;;;5010356;28;20467;-73
2021/07/15 11:04:14;;;;;;;0.20;0.20;;;;;;;;;;5009394;28;20042;-74
2021/07/15 11:06:39;;;;;;;0.20;0.20;;;;;;;;;;5009396;28;20061;-74
2021/07/15 11:09:05;;;;;;;0.40;0.23;;;;;;;;;;5013333;28;20419;-75
2021/07/15 11:11:31;;;;;;;0.55;0.20;;;;;;;;;;5010801;28;20578;-75
2021/07/15 11:13:57;;;;;;;0.25;0.25;;;;;;;;;;5010111;28;20121;-74
2021/07/15 11:16:42;;;;;;;0.50;0.30;;;;;;;;;;5010177;28;20117;-73
2021/07/15 11:19:07;;;;;;;1.17;0.50;;;;;;;;;;5010978;28;20038;-74
2021/07/15 11:21:33;;;;;;;0.30;0.25;;;;;;;;;;5010438;28;20020;-74
2021/07/15 11:24:04;;;;;;;1.95;0.60;;;;;;;;;;5011197;28;20491;-74
2021/07/15 11:26:29;;;;;;;;;;;;;;;;;;5009877;28;20050;-74
2021/07/15 11:28:54;;;;;;;0.50;0.30;;;;;;;;;;5010413;28;19909;-74
2021/07/15 11:31:46;;;;;;;0.20;0.10;;;;;;;;;;5010372;28;20042;-74
2021/07/15 11:34:31;;;;;;;0.30;0.20;;;;;;;;;;5006586;28;20030;-74
2021/07/15 11:37:16;;;;;;;0.35;0.30;;;;;;;;;;5027710;28;20073;-74
2021/07/15 11:39:41;;;;;;;0.47;0.30;;;;;;;;;;5028111;28;20372;-74
2021/07/15 11:42:16;;;;;;;0.33;0.23;;;;;;;;;;5030788;28;20028;-75
2021/07/15 11:44:55;;;;;;;0.60;0.30;;;;;;;;;;5031112;28;20749;-74
2021/07/15 11:47:40;;;;;;;0.68;0.40;;;;;;;;;;5028674;28;20033;-74
2021/07/15 11:50:05;;;;;;;0.25;0.20;;;;;;;;;;5025503;28;20630;-74
2021/07/15 11:52:30;;;;;;;0.22;0.20;;;;;;;;;;5007143;28;20034;-74
2021/07/15 11:54:56;;;;;;;0.55;0.45;;;;;;;;;;5007148;28;20388;-74
2021/07/15 11:57:23;;;;;;;0.30;0.20;;;;;;;;;;5008002;28;20028;-74
2021/07/15 11:59:51;;;;;;;0.40;0.32;;;;;;;;;;5012136;28;20100;-74
2021/07/15 12:02:18;;;;;;;0.30;0.30;;;;;;;;;;5009624;28;20049;-74
2021/07/15 12:05:02;;;;;;;0.10;0.10;;;;;;;;;;5007116;28;20026;-74
2021/07/15 12:07:27;;;;;;;0.35;0.35;;;;;;;;;;5019288;28;20550;-73
2021/07/15 12:09:52;;;;;;;0.67;0.37;;;;;;;;;;5008439;28;20038;-74
2021/07/15 12:12:18;;;;;;;0.50;0.20;;;;;;;;;;5009752;28;20330;-75
2021/07/15 12:14:50;;;;;;;0.52;0.30;;;;;;;;;;5011677;28;20025;-73
2021/07/15 12:17:16;;;;;;;0.45;0.30;;;;;;;;;;5009441;28;20509;-72
2021/07/15 12:19:52;;;;;;;0.80;0.20;;;;;;;;;;5009718;28;20169;-73
2021/07/15 12:22:17;;;;;;;1.15;0.50;;;;;;;;;;5013355;28;20033;-74
2021/07/15 12:24:42;;;;;;;0.52;0.15;;;;;;;;;;5013159;28;20041;-73
2021/07/15 12:27:10;;;;;;;1.27;0.40;;;;;;;;;;5011275;28;20034;-73
2021/07/15 12:29:37;;;;;;;0.43;0.20;;;;;;;;;;5009420;28;20283;-73
2021/07/15 12:32:03;;;;;;;0.30;0.20;;;;;;;;;;5008649;28;20040;-73
2021/07/15 12:34:28;;;;;;;0.40;0.30;;;;;;;;;;5008833;28;20030;-73
2021/07/15 12:36:53;;;;;;;0.32;0.30;;;;;;;;;;5008566;28;20492;-73
2021/07/15 12:39:19;;;;;;;2.30;0.33;;;;;;;;;;5008127;28;20045;-73
2021/07/15 12:41:45;;;;;;;0.32;0.30;;;;;;;;;;5010979;28;20311;-73
2021/07/15 12:44:14;;;;;;;0.20;0.20;;;;;;;;;;5006982;28;20038;-73
2021/07/15 12:46:44;;;;;;;0.45;0.28;;;;;;;;;;5008816;28;20057;-73
2021/07/15 12:49:14;;;;;;;0.10;0.10;;;;;;;;;;5007281;28;20038;-74
2021/07/15 12:51:42;;;;;;;0.40;0.30;;;;;;;;;;5006568;28;20033;-73
2021/07/15 12:54:08;;;;;;;0.38;0.30;;;;;;;;;;5008820;28;20025;-75
2021/07/15 12:56:34;;;;;;;0.65;0.28;;;;;;;;;;5006637;28;20591;-75
2021/07/15 12:59:01;;;;;;;0.33;0.33;;;;;;;;;;5005906;28;20037;-74
2021/07/15 13:01:26;;;;;;;0.55;0.25;;;;;;;;;;5007479;28;20309;-73
2021/07/15 13:04:10;;;;;;;0.32;0.20;;;;;;;;;;5006517;28;20030;-74
2021/07/15 13:06:37;;;;;;;2.50;0.40;;;;;;;;;;5005190;28;20049;-74
2021/07/15 13:09:11;;;;;;;1.30;0.43;;;;;;;;;;5010639;28;20021;-74
2021/07/15 13:14:20;;;;;;;0.35;0.20;;;;;;;;;;5006941;28;20092;-73
2021/07/15 13:16:47;;;;;;;0.20;0.10;;;;;;;;;;5008649;28;20034;-75
2021/07/15 13:19:13;;;;;;;0.10;0.10;;;;;;;;;;5006566;28;20300;-73
2021/07/15 13:21:38;;;;;;;2.10;0.60;;;;;;;;;;5005502;28;20037;-74
2021/07/15 13:24:05;;;;;;;0.30;0.30;;;;;;;;;;5009598;28;20047;-73
2021/07/15 13:26:30;;;;;;;0.17;0.10;;;;;;;;;;5009041;28;20129;-73
2021/07/15 13:28:56;;;;;;;0.22;0.22;;;;;;;;;;5007633;28;20034;-74
2021/07/15 13:31:21;;;;;;;0.32;0.20;;;;;;;;;;5006654;28;20049;-73
2021/07/15 13:33:47;;;;;;;0.10;0.10;;;;;;;;;;5007704;28;20547;-74
2021/07/15 13:36:14;;;;;;;1.00;0.17;;;;;;;;;;5010107;28;20032;-74
2021/07/15 13:38:43;;;;;;;0.30;0.30;;;;;;;;;;5008447;28;20030;-74
2021/07/15 13:41:23;;;;;;;0.25;0.20;;;;;;;;;;5007411;28;20042;-74
2021/07/15 13:43:49;;;;;;;1.17;0.20;;;;;;;;;;5007147;28;20092;-73
2021/07/15 13:46:17;;;;;;;0.45;0.22;;;;;;;;;;5007157;28;20475;-73
2021/07/15 13:48:44;;;;;;;0.47;0.35;;;;;;;;;;5007533;28;20072;-73
2021/07/15 13:51:12;;;;;;;0.13;0.13;;;;;;;;;;5008438;28;20024;-73
2021/07/15 13:53:38;;;;;;;1.10;0.20;;;;;;;;;;5007697;28;20038;-73
2021/07/15 13:56:04;;;;;;;0.13;0.10;;;;;;;;;;5008486;28;20058;-73
2021/07/15 13:58:31;;;;;;;0.35;0.28;;;;;;;;;;5006596;28;20057;-74
2021/07/15 14:00:58;;;;;;;0.10;0.10;;;;;;;;;;5006105;28;20049;-74
2021/07/15 14:03:23;;;;;;;1.75;0.15;;;;;;;;;;5005643;28;20025;-73
2021/07/15 14:05:50;;;;;;;0.28;0.20;;;;;;;;;;5008499;28;20041;-73
2021/07/15 14:08:15;;;;;;;0.45;0.30;;;;;;;;;;5018238;28;20063;-73
2021/07/15 14:10:41;;;;;;;0.30;0.30;;;;;;;;;;5026390;28;20041;-73
2021/07/15 14:13:07;;;;;;;0.30;0.30;;;;;;;;;;5027277;28;20056;-73
2021/07/15 14:15:34;;;;;;;0.75;0.25;;;;;;;;;;5026230;28;20108;-74
2021/07/15 14:18:05;;;;;;;0.65;0.28;;;;;;;;;;5032240;28;20014;-73
2021/07/15 14:20:30;;;;;;;0.70;0.30;;;;;;;;;;5030100;28;20033;-72
2021/07/15 14:22:56;;;;;;;0.32;0.30;;;;;;;;;;5025984;28;20041;-73
2021/07/15 14:25:22;;;;;;;0.68;0.40;;;;;;;;;;5011339;28;20570;-72
2021/07/15 14:27:47;;;;;;;1.25;0.40;;;;;;;;;;5011453;28;20116;-72
2021/07/15 14:30:13;;;;;;;0.40;0.30;;;;;;;;;;5012272;28;20053;-73
2021/07/15 14:32:38;;;;;;;0.20;0.20;;;;;;;;;;5010900;28;20034;-73
2021/07/15 14:35:04;;;;;;;0.40;0.30;;;;;;;;;;5010945;28;20100;-73
2021/07/15 14:37:29;;;;;;;0.63;0.40;;;;;;;;;;5010661;28;20801;-73
2021/07/15 14:39:55;;;;;;;0.40;0.40;;;;;;;;;;5009567;28;20033;-73
2021/07/15 14:42:20;;;;;;;1.00;0.30;;;;;;;;;;5010842;28;20101;-74
2021/07/15 14:44:45;;;;;;;0.60;0.60;;;;;;;;;;5013268;28;20773;-73
2021/07/15 14:47:10;;;;;;;0.97;0.30;;;;;;;;;;5010891;28;20042;-73